IGO9269 VYYY-VECC
Flight info
| Callsign | IGO9269 |
|---|---|
| Flight time | 1h 55m |
| Altitude | 32000 |
| Route | MULGO1B SUMSU L507 AVPOP AVPOP2G |
| Aircraft | B738/M-SDE2E3FGHIRWXY/LB1 |
Departure
| Time | 2026-05-04 10:25 |
|---|---|
| Airport | Yangon International Airport (VYYY) |
Arrival
| Time | 2026-05-04 12:20 |
|---|---|
| Airport | Netaji Subhash Chandra Bose International Airport (VECC) |
| Time | Latitude | Longitude | Altitude | Speed | Heading |
|---|---|---|---|---|---|
| 2026-05-04 10:11 | 16.90310 | 96.12748 | 97 ft | 0 kts | 299° |
| 2026-05-04 10:16 | 16.90297 | 96.12772 | 97 ft | 2 kts | 299° |
| 2026-05-04 10:16 | 16.90290 | 96.12786 | 95 ft | 2 kts | 296° |
| 2026-05-04 10:16 | 16.90286 | 96.12801 | 96 ft | 2 kts | 267° |
| 2026-05-04 10:16 | 16.90289 | 96.12816 | 94 ft | 2 kts | 238° |
| 2026-05-04 10:17 | 16.90299 | 96.12827 | 95 ft | 2 kts | 210° |
| 2026-05-04 10:17 | 16.90301 | 96.12828 | 95 ft | 0 kts | 209° |
| 2026-05-04 10:20 | 16.90294 | 96.12825 | 94 ft | 2 kts | 209° |
| 2026-05-04 10:21 | 16.90275 | 96.12813 | 96 ft | 4 kts | 211° |
| 2026-05-04 10:21 | 16.90241 | 96.12790 | 96 ft | 7 kts | 212° |
| 2026-05-04 10:21 | 16.90191 | 96.12758 | 96 ft | 10 kts | 212° |
| 2026-05-04 10:21 | 16.90130 | 96.12718 | 97 ft | 11 kts | 213° |
| 2026-05-04 10:22 | 16.90006 | 96.12633 | 100 ft | 11 kts | 213° |
| 2026-05-04 10:22 | 16.89936 | 96.12586 | 100 ft | 11 kts | 213° |
| 2026-05-04 10:22 | 16.89886 | 96.12573 | 100 ft | 8 kts | 148° |
| 2026-05-04 10:23 | 16.89855 | 96.12617 | 98 ft | 7 kts | 123° |
| 2026-05-04 10:23 | 16.89829 | 96.12661 | 99 ft | 7 kts | 121° |
| 2026-05-04 10:25 | 16.92503 | 96.14513 | 741 ft | 184 kts | 32° |
| 2026-05-04 10:25 | 16.93619 | 96.15233 | 1609 ft | 182 kts | 30° |
| 2026-05-04 10:25 | 16.94735 | 96.15982 | 2269 ft | 204 kts | 32° |
| 2026-05-04 10:25 | 16.95999 | 96.16861 | 2632 ft | 234 kts | 32° |
| 2026-05-04 10:26 | 16.97406 | 96.17834 | 3027 ft | 255 kts | 31° |
| 2026-05-04 10:26 | 16.98956 | 96.18901 | 3397 ft | 275 kts | 32° |
| 2026-05-04 10:26 | 17.00568 | 96.20008 | 4240 ft | 278 kts | 32° |
| 2026-05-04 10:26 | 17.02193 | 96.21120 | 5127 ft | 281 kts | 32° |
| 2026-05-04 10:27 | 17.03838 | 96.22242 | 5983 ft | 284 kts | 32° |
| 2026-05-04 10:27 | 17.05507 | 96.23377 | 6757 ft | 288 kts | 32° |
| 2026-05-04 10:27 | 17.07196 | 96.24525 | 7512 ft | 291 kts | 32° |
| 2026-05-04 10:27 | 17.08818 | 96.25824 | 8248 ft | 296 kts | 43° |
| 2026-05-04 10:28 | 17.10261 | 96.27382 | 9009 ft | 300 kts | 47° |
| 2026-05-04 10:28 | 17.11644 | 96.28996 | 9756 ft | 303 kts | 48° |
| 2026-05-04 10:28 | 17.13067 | 96.30665 | 10247 ft | 316 kts | 47° |
| 2026-05-04 10:28 | 17.14594 | 96.32437 | 10406 ft | 340 kts | 47° |
| 2026-05-04 10:29 | 17.16227 | 96.34308 | 10735 ft | 354 kts | 47° |
| 2026-05-04 10:29 | 17.17915 | 96.36229 | 11279 ft | 361 kts | 46° |
| 2026-05-04 10:29 | 17.19628 | 96.38171 | 11930 ft | 364 kts | 46° |
| 2026-05-04 10:29 | 17.21355 | 96.40123 | 12585 ft | 367 kts | 46° |
| 2026-05-04 10:30 | 17.23103 | 96.42097 | 13187 ft | 372 kts | 46° |
| 2026-05-04 10:30 | 17.24875 | 96.44098 | 13776 ft | 376 kts | 46° |
| 2026-05-04 10:30 | 17.26731 | 96.46038 | 14321 ft | 379 kts | 36° |
| 2026-05-04 10:30 | 17.29064 | 96.47298 | 14843 ft | 379 kts | 14° |
| 2026-05-04 10:31 | 17.31654 | 96.47611 | 15414 ft | 376 kts | 353° |
| 2026-05-04 10:31 | 17.34151 | 96.46983 | 15955 ft | 373 kts | 333° |
| 2026-05-04 10:32 | 17.44195 | 96.34702 | 19050 ft | 381 kts | 303° |
| 2026-05-04 10:33 | 17.45761 | 96.32461 | 19511 ft | 383 kts | 304° |
| 2026-05-04 10:33 | 17.47347 | 96.30204 | 19949 ft | 386 kts | 304° |
| 2026-05-04 10:33 | 17.48952 | 96.27928 | 20391 ft | 389 kts | 304° |
| 2026-05-04 10:33 | 17.50568 | 96.25641 | 20816 ft | 392 kts | 304° |
| 2026-05-04 10:34 | 17.52197 | 96.23341 | 21247 ft | 394 kts | 304° |
| 2026-05-04 10:34 | 17.53834 | 96.21029 | 21679 ft | 397 kts | 304° |
| 2026-05-04 10:34 | 17.55484 | 96.18697 | 22080 ft | 399 kts | 304° |
| 2026-05-04 10:34 | 17.57146 | 96.16350 | 22458 ft | 402 kts | 304° |
| 2026-05-04 10:35 | 17.58796 | 96.14019 | 22852 ft | 405 kts | 304° |
| 2026-05-04 10:35 | 17.60477 | 96.11642 | 23241 ft | 407 kts | 304° |
| 2026-05-04 10:35 | 17.62168 | 96.09251 | 23570 ft | 409 kts | 304° |
| 2026-05-04 10:35 | 17.63868 | 96.06848 | 23885 ft | 411 kts | 304° |
| 2026-05-04 10:36 | 17.65579 | 96.04427 | 24203 ft | 413 kts | 304° |
| 2026-05-04 10:36 | 17.67288 | 96.02007 | 24543 ft | 415 kts | 304° |
| 2026-05-04 10:36 | 17.69008 | 95.99571 | 24851 ft | 417 kts | 304° |
| 2026-05-04 10:36 | 17.70736 | 95.97124 | 25158 ft | 418 kts | 304° |
| 2026-05-04 10:37 | 17.72473 | 95.94662 | 25471 ft | 420 kts | 304° |
| 2026-05-04 10:37 | 17.74214 | 95.92193 | 25778 ft | 422 kts | 304° |
| 2026-05-04 10:37 | 17.75959 | 95.89719 | 26076 ft | 424 kts | 304° |
| 2026-05-04 10:37 | 17.77718 | 95.87223 | 26367 ft | 425 kts | 304° |
| 2026-05-04 10:39 | 17.88381 | 95.72074 | 28115 ft | 433 kts | 304° |
| 2026-05-04 10:39 | 17.89569 | 95.70385 | 28386 ft | 432 kts | 304° |
| 2026-05-04 10:39 | 17.91343 | 95.67861 | 28813 ft | 429 kts | 304° |
| 2026-05-04 10:40 | 17.93117 | 95.65337 | 29202 ft | 428 kts | 304° |
| 2026-05-04 10:40 | 17.95458 | 95.62003 | 29697 ft | 427 kts | 304° |
| 2026-05-04 10:40 | 17.96650 | 95.60304 | 29933 ft | 427 kts | 304° |
| 2026-05-04 10:40 | 17.98408 | 95.57799 | 30289 ft | 425 kts | 304° |
| 2026-05-04 10:41 | 18.00159 | 95.55302 | 30622 ft | 424 kts | 304° |
| 2026-05-04 10:41 | 18.01904 | 95.52814 | 30933 ft | 423 kts | 304° |
| 2026-05-04 10:41 | 18.03652 | 95.50319 | 31264 ft | 422 kts | 304° |
| 2026-05-04 10:41 | 18.05373 | 95.47864 | 31602 ft | 421 kts | 304° |
| 2026-05-04 10:42 | 18.07115 | 95.45376 | 31775 ft | 423 kts | 304° |
| 2026-05-04 10:42 | 18.10611 | 95.40381 | 31771 ft | 422 kts | 304° |
| 2026-05-04 10:43 | 18.14076 | 95.35427 | 31790 ft | 420 kts | 304° |
| 2026-05-04 10:45 | 18.27856 | 95.15685 | 31808 ft | 419 kts | 304° |
| 2026-05-04 10:45 | 18.31306 | 95.10735 | 31815 ft | 420 kts | 304° |
| 2026-05-04 10:46 | 18.34762 | 95.05770 | 31821 ft | 420 kts | 304° |
| 2026-05-04 10:46 | 18.38216 | 95.00805 | 31828 ft | 421 kts | 304° |
| 2026-05-04 10:47 | 18.41677 | 94.95825 | 31836 ft | 421 kts | 304° |
| 2026-05-04 10:47 | 18.45132 | 94.90850 | 31844 ft | 421 kts | 304° |
| 2026-05-04 10:49 | 18.58943 | 94.70924 | 31855 ft | 421 kts | 304° |
| 2026-05-04 10:50 | 18.62411 | 94.65894 | 31856 ft | 421 kts | 304° |
| 2026-05-04 10:52 | 18.76088 | 94.45996 | 31868 ft | 419 kts | 304° |
| 2026-05-04 10:52 | 18.79503 | 94.41018 | 31856 ft | 419 kts | 304° |
| 2026-05-04 10:54 | 18.93133 | 94.21112 | 31851 ft | 418 kts | 304° |
| 2026-05-04 10:56 | 19.06716 | 94.01212 | 31843 ft | 417 kts | 304° |
| 2026-05-04 10:57 | 19.10079 | 93.96274 | 31848 ft | 416 kts | 304° |
| 2026-05-04 10:57 | 19.13461 | 93.91306 | 31841 ft | 416 kts | 304° |
| 2026-05-04 10:58 | 19.16842 | 93.86334 | 31852 ft | 416 kts | 304° |
| 2026-05-04 10:58 | 19.20221 | 93.81362 | 31790 ft | 415 kts | 304° |
| 2026-05-04 10:59 | 19.23589 | 93.76398 | 31837 ft | 414 kts | 304° |
| 2026-05-04 10:59 | 19.26932 | 93.71473 | 31846 ft | 415 kts | 304° |
| 2026-05-04 11:00 | 19.30297 | 93.66510 | 31846 ft | 416 kts | 304° |
| 2026-05-04 11:02 | 19.43858 | 93.46465 | 31853 ft | 420 kts | 304° |
| 2026-05-04 11:05 | 19.69237 | 93.08773 | 31854 ft | 417 kts | 304° |
| 2026-05-04 11:06 | 19.72576 | 93.03795 | 31856 ft | 417 kts | 304° |
| 2026-05-04 11:06 | 19.75941 | 92.98776 | 31856 ft | 417 kts | 304° |
| 2026-05-04 11:10 | 19.99482 | 92.63540 | 31855 ft | 418 kts | 303° |
| 2026-05-04 11:12 | 20.12885 | 92.43386 | 31857 ft | 417 kts | 303° |
| 2026-05-04 11:12 | 20.16236 | 92.38336 | 31858 ft | 417 kts | 303° |
| 2026-05-04 11:13 | 20.19579 | 92.33294 | 31859 ft | 417 kts | 303° |
| 2026-05-04 11:13 | 20.22919 | 92.28252 | 31858 ft | 416 kts | 303° |
| 2026-05-04 11:14 | 20.26255 | 92.23211 | 31862 ft | 416 kts | 303° |
| 2026-05-04 11:16 | 20.39541 | 92.03092 | 31862 ft | 415 kts | 303° |
| 2026-05-04 11:16 | 20.42855 | 91.98054 | 31862 ft | 415 kts | 303° |
| 2026-05-04 11:17 | 20.46137 | 91.92994 | 31864 ft | 415 kts | 302° |
| 2026-05-04 11:19 | 20.59221 | 91.72734 | 31858 ft | 414 kts | 302° |
| 2026-05-04 11:19 | 20.62490 | 91.67667 | 31858 ft | 414 kts | 302° |
| 2026-05-04 11:20 | 20.65759 | 91.62593 | 31856 ft | 414 kts | 302° |
| 2026-05-04 11:20 | 20.69002 | 91.57557 | 31859 ft | 414 kts | 302° |
| 2026-05-04 11:22 | 20.82045 | 91.37254 | 31856 ft | 414 kts | 302° |
| 2026-05-04 11:23 | 20.85300 | 91.32177 | 31858 ft | 414 kts | 302° |
| 2026-05-04 11:25 | 20.96634 | 91.14460 | 31855 ft | 413 kts | 302° |
| 2026-05-04 11:25 | 20.99874 | 91.09385 | 31854 ft | 413 kts | 302° |
| 2026-05-04 11:27 | 21.13863 | 90.87420 | 31853 ft | 411 kts | 301° |
| 2026-05-04 11:28 | 21.17086 | 90.82348 | 31850 ft | 411 kts | 301° |
| 2026-05-04 11:28 | 21.20298 | 90.77288 | 31854 ft | 411 kts | 301° |
| 2026-05-04 11:29 | 21.23507 | 90.72227 | 31853 ft | 410 kts | 301° |
| 2026-05-04 11:29 | 21.26714 | 90.67166 | 31850 ft | 410 kts | 301° |
| 2026-05-04 11:33 | 21.49094 | 90.31749 | 31841 ft | 409 kts | 301° |
| 2026-05-04 11:33 | 21.52281 | 90.26688 | 31844 ft | 409 kts | 301° |
| 2026-05-04 11:34 | 21.55465 | 90.21627 | 31845 ft | 409 kts | 301° |
| 2026-05-04 11:34 | 21.58646 | 90.16567 | 31842 ft | 408 kts | 301° |
| 2026-05-04 11:35 | 21.61806 | 90.11535 | 31847 ft | 408 kts | 301° |
| 2026-05-04 11:35 | 21.64980 | 90.06477 | 31845 ft | 408 kts | 301° |
| 2026-05-04 11:36 | 21.68153 | 90.01416 | 31847 ft | 407 kts | 301° |
| 2026-05-04 11:36 | 21.71321 | 89.96358 | 31842 ft | 407 kts | 301° |
| 2026-05-04 11:37 | 21.74477 | 89.91314 | 31843 ft | 407 kts | 301° |
| 2026-05-04 11:37 | 21.77637 | 89.86260 | 31842 ft | 406 kts | 300° |
| 2026-05-04 11:38 | 21.80789 | 89.81213 | 31844 ft | 406 kts | 300° |
| 2026-05-04 11:38 | 21.83915 | 89.76203 | 31839 ft | 406 kts | 300° |
| 2026-05-04 11:39 | 21.87058 | 89.71161 | 31843 ft | 405 kts | 300° |
| 2026-05-04 11:41 | 21.98033 | 89.53519 | 31839 ft | 405 kts | 300° |
| 2026-05-04 11:41 | 22.01161 | 89.48480 | 31838 ft | 404 kts | 300° |
| 2026-05-04 11:42 | 22.04286 | 89.43443 | 31837 ft | 404 kts | 300° |
| 2026-05-04 11:42 | 22.07407 | 89.38406 | 31834 ft | 404 kts | 300° |
| 2026-05-04 11:43 | 22.10528 | 89.33363 | 31836 ft | 404 kts | 300° |
| 2026-05-04 11:43 | 22.13644 | 89.28325 | 31835 ft | 404 kts | 300° |
| 2026-05-04 11:44 | 22.16737 | 89.23320 | 31830 ft | 403 kts | 300° |
| 2026-05-04 11:44 | 22.19849 | 89.18277 | 31833 ft | 403 kts | 300° |
| 2026-05-04 11:45 | 22.22958 | 89.13236 | 31833 ft | 403 kts | 300° |
| 2026-05-04 11:45 | 22.26065 | 89.08192 | 31828 ft | 403 kts | 300° |
| 2026-05-04 11:46 | 22.29172 | 89.03146 | 31830 ft | 403 kts | 300° |
| 2026-05-04 11:46 | 22.32342 | 88.98135 | 31829 ft | 405 kts | 302° |
| 2026-05-04 11:47 | 22.35644 | 88.93211 | 31830 ft | 405 kts | 302° |
| 2026-05-04 11:47 | 22.36701 | 88.91638 | 31828 ft | 405 kts | 302° |
| 2026-05-04 11:48 | 22.39996 | 88.86701 | 31829 ft | 405 kts | 302° |
| 2026-05-04 11:48 | 22.43050 | 88.82096 | 31832 ft | 405 kts | 302° |
| 2026-05-04 11:49 | 22.46330 | 88.77136 | 31827 ft | 406 kts | 302° |
| 2026-05-04 11:49 | 22.49616 | 88.72165 | 31806 ft | 399 kts | 302° |
| 2026-05-04 11:49 | 22.51207 | 88.69761 | 31792 ft | 387 kts | 302° |
| 2026-05-04 11:50 | 22.52744 | 88.67433 | 31792 ft | 384 kts | 302° |
| 2026-05-04 11:50 | 22.54471 | 88.65219 | 31779 ft | 392 kts | 318° |
| 2026-05-04 11:50 | 22.56914 | 88.63837 | 31611 ft | 407 kts | 341° |
| 2026-05-04 11:50 | 22.59750 | 88.63661 | 31559 ft | 417 kts | 2° |
| 2026-05-04 11:51 | 22.62556 | 88.64657 | 30961 ft | 432 kts | 28° |
| 2026-05-04 11:51 | 22.64842 | 88.66789 | 30487 ft | 440 kts | 46° |
| 2026-05-04 11:51 | 22.67059 | 88.69012 | 30058 ft | 432 kts | 26° |
| 2026-05-04 11:51 | 22.69803 | 88.70136 | 29643 ft | 416 kts | 2° |
| 2026-05-04 11:52 | 22.72606 | 88.69982 | 29265 ft | 396 kts | 338° |
| 2026-05-04 11:52 | 22.74977 | 88.68654 | 28892 ft | 377 kts | 314° |
| 2026-05-04 11:52 | 22.76789 | 88.66663 | 28557 ft | 369 kts | 311° |
| 2026-05-04 11:52 | 22.78854 | 88.64985 | 28175 ft | 373 kts | 324° |
| 2026-05-04 11:53 | 22.80988 | 88.63424 | 27779 ft | 368 kts | 317° |
| 2026-05-04 11:53 | 22.82905 | 88.61614 | 27392 ft | 363 kts | 311° |
| 2026-05-04 11:53 | 22.84568 | 88.59628 | 27005 ft | 358 kts | 304° |
| 2026-05-04 11:53 | 22.86014 | 88.57442 | 26640 ft | 354 kts | 298° |
| 2026-05-04 11:55 | 22.91328 | 88.39442 | 22221 ft | 386 kts | 283° |
| 2026-05-04 11:55 | 22.91988 | 88.36637 | 21833 ft | 381 kts | 283° |
| 2026-05-04 11:56 | 22.92642 | 88.33869 | 21468 ft | 377 kts | 283° |
| 2026-05-04 11:56 | 22.93288 | 88.31128 | 21035 ft | 375 kts | 283° |
| 2026-05-04 11:56 | 22.93934 | 88.28385 | 20549 ft | 373 kts | 283° |
| 2026-05-04 11:56 | 22.94575 | 88.25664 | 20095 ft | 371 kts | 283° |
| 2026-05-04 11:57 | 22.95212 | 88.22956 | 19653 ft | 369 kts | 283° |
| 2026-05-04 11:57 | 22.95843 | 88.20274 | 19424 ft | 361 kts | 283° |
| 2026-05-04 11:57 | 22.96174 | 88.17637 | 19336 ft | 346 kts | 265° |
| 2026-05-04 11:57 | 22.95623 | 88.15165 | 19264 ft | 333 kts | 244° |
| 2026-05-04 11:58 | 22.94286 | 88.13173 | 19100 ft | 326 kts | 222° |
| 2026-05-04 11:58 | 22.92362 | 88.11903 | 18766 ft | 327 kts | 200° |
| 2026-05-04 11:58 | 22.90108 | 88.11542 | 18379 ft | 332 kts | 178° |
| 2026-05-04 11:58 | 22.87892 | 88.12155 | 18014 ft | 337 kts | 155° |
| 2026-05-04 11:59 | 22.86023 | 88.13667 | 17646 ft | 340 kts | 133° |
| 2026-05-04 11:59 | 22.84793 | 88.15854 | 17280 ft | 341 kts | 113° |
| 2026-05-04 11:59 | 22.84017 | 88.18279 | 16939 ft | 340 kts | 109° |
| 2026-05-04 11:59 | 22.83325 | 88.20727 | 16584 ft | 339 kts | 108° |
| 2026-05-04 12:00 | 22.82649 | 88.23170 | 16243 ft | 337 kts | 108° |
| 2026-05-04 12:00 | 22.81983 | 88.25592 | 15922 ft | 335 kts | 108° |
| 2026-05-04 12:00 | 22.81494 | 88.28023 | 15795 ft | 327 kts | 92° |
| 2026-05-04 12:00 | 22.81831 | 88.30415 | 15615 ft | 320 kts | 69° |
| 2026-05-04 12:01 | 22.82986 | 88.32477 | 15124 ft | 324 kts | 44° |
| 2026-05-04 12:01 | 22.84812 | 88.33858 | 14763 ft | 320 kts | 20° |
| 2026-05-04 12:02 | 22.93077 | 88.26260 | 12941 ft | 295 kts | 288° |
| 2026-05-04 12:03 | 22.93722 | 88.24157 | 12638 ft | 293 kts | 288° |
| 2026-05-04 12:03 | 22.94358 | 88.22057 | 12319 ft | 292 kts | 287° |
| 2026-05-04 12:03 | 22.94594 | 88.19892 | 11946 ft | 292 kts | 263° |
| 2026-05-04 12:03 | 22.93931 | 88.17827 | 11625 ft | 292 kts | 238° |
| 2026-05-04 12:04 | 22.92499 | 88.16280 | 11303 ft | 294 kts | 212° |
| 2026-05-04 12:04 | 22.90573 | 88.15549 | 10976 ft | 297 kts | 187° |
| 2026-05-04 12:04 | 22.88523 | 88.15786 | 10653 ft | 300 kts | 161° |
| 2026-05-04 12:04 | 22.86743 | 88.16960 | 10338 ft | 301 kts | 135° |
| 2026-05-04 12:05 | 22.85586 | 88.18825 | 10028 ft | 300 kts | 112° |
| 2026-05-04 12:05 | 22.84857 | 88.20938 | 9742 ft | 298 kts | 108° |
| 2026-05-04 12:05 | 22.84198 | 88.23063 | 9443 ft | 297 kts | 108° |
| 2026-05-04 12:05 | 22.83550 | 88.25188 | 9130 ft | 295 kts | 108° |
| 2026-05-04 12:06 | 22.82913 | 88.27302 | 8820 ft | 294 kts | 108° |
| 2026-05-04 12:06 | 22.82308 | 88.29413 | 8496 ft | 293 kts | 101° |
| 2026-05-04 12:06 | 22.82315 | 88.31562 | 8274 ft | 289 kts | 75° |
| 2026-05-04 12:06 | 22.83187 | 88.33489 | 7980 ft | 285 kts | 48° |
| 2026-05-04 12:07 | 22.84736 | 88.34769 | 7686 ft | 280 kts | 21° |
| 2026-05-04 12:07 | 22.86628 | 88.35149 | 7368 ft | 277 kts | 354° |
| 2026-05-04 12:07 | 22.88450 | 88.34554 | 7068 ft | 275 kts | 328° |
| 2026-05-04 12:07 | 22.89804 | 88.33129 | 6758 ft | 274 kts | 301° |
| 2026-05-04 12:08 | 22.90564 | 88.31240 | 6444 ft | 274 kts | 289° |
| 2026-05-04 12:08 | 22.91174 | 88.29277 | 6114 ft | 275 kts | 288° |
| 2026-05-04 12:08 | 22.91766 | 88.27312 | 5799 ft | 275 kts | 288° |
| 2026-05-04 12:08 | 22.92360 | 88.25339 | 5499 ft | 274 kts | 288° |
| 2026-05-04 12:09 | 22.92952 | 88.23375 | 5188 ft | 274 kts | 286° |
| 2026-05-04 12:09 | 22.93133 | 88.21348 | 4942 ft | 269 kts | 258° |
| 2026-05-04 12:09 | 22.92424 | 88.19549 | 4863 ft | 256 kts | 229° |
| 2026-05-04 12:09 | 22.91061 | 88.18421 | 4821 ft | 244 kts | 199° |
| 2026-05-04 12:10 | 22.89404 | 88.18219 | 4799 ft | 241 kts | 168° |
| 2026-05-04 12:10 | 22.87905 | 88.18968 | 4784 ft | 239 kts | 138° |
| 2026-05-04 12:10 | 22.86992 | 88.20444 | 4752 ft | 238 kts | 107° |
| 2026-05-04 12:10 | 22.86839 | 88.22229 | 4681 ft | 240 kts | 89° |
| 2026-05-04 12:11 | 22.86938 | 88.24048 | 4586 ft | 243 kts | 87° |
| 2026-05-04 12:11 | 22.87069 | 88.25879 | 4496 ft | 245 kts | 87° |
| 2026-05-04 12:11 | 22.87213 | 88.27733 | 4346 ft | 249 kts | 86° |
| 2026-05-04 12:11 | 22.87362 | 88.29605 | 4145 ft | 247 kts | 86° |
| 2026-05-04 12:12 | 22.87510 | 88.31449 | 3963 ft | 244 kts | 86° |
| 2026-05-04 12:12 | 22.87657 | 88.33267 | 3800 ft | 240 kts | 86° |
| 2026-05-04 12:12 | 22.87755 | 88.34455 | 3698 ft | 236 kts | 86° |
| 2026-05-04 12:12 | 22.87952 | 88.36779 | 3493 ft | 230 kts | 86° |
| 2026-05-04 12:13 | 22.88100 | 88.38491 | 3343 ft | 225 kts | 86° |
| 2026-05-04 12:14 | 22.88225 | 88.48053 | 2348 ft | 171 kts | 154° |
| 2026-05-04 12:15 | 22.87069 | 88.48107 | 2221 ft | 175 kts | 201° |
| 2026-05-04 12:15 | 22.85946 | 88.47580 | 2092 ft | 178 kts | 194° |
| 2026-05-04 12:15 | 22.84748 | 88.47249 | 2058 ft | 177 kts | 191° |
| 2026-05-04 12:15 | 22.83538 | 88.46971 | 2019 ft | 178 kts | 187° |
| 2026-05-04 12:16 | 22.82331 | 88.46778 | 2009 ft | 174 kts | 185° |
| 2026-05-04 12:16 | 22.81129 | 88.46623 | 2003 ft | 175 kts | 184° |
| 2026-05-04 12:16 | 22.79912 | 88.46476 | 1994 ft | 176 kts | 184° |
| 2026-05-04 12:16 | 22.78696 | 88.46335 | 1986 ft | 175 kts | 184° |
| 2026-05-04 12:17 | 22.77507 | 88.46196 | 1956 ft | 176 kts | 184° |
| 2026-05-04 12:17 | 22.76276 | 88.46051 | 1760 ft | 177 kts | 184° |
| 2026-05-04 12:17 | 22.75081 | 88.45910 | 1547 ft | 168 kts | 184° |
| 2026-05-04 12:17 | 22.73937 | 88.45774 | 1367 ft | 161 kts | 184° |
| 2026-05-04 12:18 | 22.72826 | 88.45642 | 1159 ft | 157 kts | 184° |
| 2026-05-04 12:18 | 22.71781 | 88.45520 | 901 ft | 147 kts | 183° |
| 2026-05-04 12:18 | 22.70749 | 88.45402 | 727 ft | 149 kts | 183° |
| 2026-05-04 12:18 | 22.69698 | 88.45278 | 561 ft | 156 kts | 184° |
| 2026-05-04 12:19 | 22.68595 | 88.45148 | 366 ft | 160 kts | 187° |
| 2026-05-04 12:19 | 22.67453 | 88.45024 | 146 ft | 170 kts | 187° |
| 2026-05-04 12:19 | 22.66296 | 88.44872 | 27 ft | 157 kts | 184° |
| 2026-05-04 12:19 | 22.65333 | 88.44768 | 28 ft | 117 kts | 185° |
| 2026-05-04 12:20 | 22.64677 | 88.44692 | 27 ft | 67 kts | 188° |
| 2026-05-04 12:20 | 22.64422 | 88.44661 | 27 ft | 25 kts | 185° |
| 2026-05-04 12:20 | 22.64308 | 88.44646 | 28 ft | 13 kts | 202° |
| 2026-05-04 12:20 | 22.64259 | 88.44569 | 28 ft | 12 kts | 244° |
| 2026-05-04 12:21 | 22.64226 | 88.44490 | 28 ft | 11 kts | 246° |
| 2026-05-04 12:21 | 22.64197 | 88.44417 | 28 ft | 10 kts | 246° |
| 2026-05-04 12:21 | 22.64175 | 88.44355 | 28 ft | 5 kts | 252° |
| 2026-05-04 12:21 | 22.64179 | 88.44323 | 27 ft | 4 kts | 306° |
| 2026-05-04 12:22 | 22.64207 | 88.44313 | 28 ft | 4 kts | 358° |
| 2026-05-04 12:22 | 22.64238 | 88.44314 | 28 ft | 4 kts | 4° |
| 2026-05-04 12:22 | 22.64267 | 88.44318 | 28 ft | 4 kts | 7° |
| 2026-05-04 12:22 | 22.64296 | 88.44321 | 28 ft | 4 kts | 7° |
| 2026-05-04 12:23 | 22.64324 | 88.44325 | 28 ft | 4 kts | 6° |
| 2026-05-04 12:23 | 22.64352 | 88.44328 | 28 ft | 4 kts | 6° |
| 2026-05-04 12:23 | 22.64379 | 88.44332 | 28 ft | 4 kts | 6° |
| 2026-05-04 12:23 | 22.64410 | 88.44335 | 28 ft | 5 kts | 6° |
| 2026-05-04 12:24 | 22.64449 | 88.44341 | 28 ft | 6 kts | 7° |
| 2026-05-04 12:24 | 22.64501 | 88.44348 | 27 ft | 9 kts | 7° |
| 2026-05-04 12:24 | 22.64566 | 88.44357 | 27 ft | 10 kts | 7° |
| 2026-05-04 12:24 | 22.64639 | 88.44366 | 27 ft | 11 kts | 7° |
| 2026-05-04 12:25 | 22.64700 | 88.44363 | 27 ft | 9 kts | 321° |
| 2026-05-04 12:25 | 22.64711 | 88.44298 | 28 ft | 10 kts | 275° |
| 2026-05-04 12:25 | 22.64713 | 88.44226 | 28 ft | 9 kts | 253° |
| 2026-05-04 12:25 | 22.64659 | 88.44204 | 28 ft | 10 kts | 186° |
| 2026-05-04 12:26 | 22.64588 | 88.44195 | 28 ft | 9 kts | 187° |
| 2026-05-04 12:26 | 22.64546 | 88.44230 | 28 ft | 9 kts | 97° |
| 2026-05-04 12:26 | 22.64543 | 88.44274 | 27 ft | 2 kts | 94° |
| 2026-05-04 12:26 | 22.64542 | 88.44280 | 27 ft | 0 kts | 94° |